Time;durP1;ratioP1;P1;durP2;ratioP2;P2;SDS_P1;SDS_P2;PMS_P1;PMS_P2;Temp;Humidity;BMP_temperature;BMP_pressure;BME280_temperature;BME280_humidity;BME280_pressure;Samples;Min_cycle;Max_cycle;Signal;HPM_P1;HPM_P2
2023/06/03 00:03:12;;;;;;;3.70;1.50;;;;;;;4.15;100.00;97002.41;10624886;27;20219;-67
2023/06/03 00:08:12;;;;;;;5.77;1.90;;;;;;;3.97;100.00;97005.41;10624431;27;20213;-68
2023/06/03 00:13:12;;;;;;;3.13;1.87;;;;;;;3.88;100.00;97006.84;10624016;27;20738;-67
2023/06/03 00:18:13;;;;;;;3.40;1.43;;;;;;;3.80;100.00;97009.16;10624184;27;20221;-67
2023/06/03 00:23:15;;;;;;;7.53;2.17;;;;;;;3.71;100.00;97007.22;10623787;27;20205;-67
2023/06/03 00:28:15;;;;;;;2.23;1.80;;;;;;;3.65;100.00;97012.81;10624097;27;20193;-67
2023/06/03 00:33:16;;;;;;;4.07;1.87;;;;;;;3.54;100.00;97011.78;10623463;27;20209;-67
2023/06/03 00:38:16;;;;;;;7.27;1.60;;;;;;;3.49;100.00;97007.84;10623392;27;20317;-67
2023/06/03 00:43:17;;;;;;;9.00;2.30;;;;;;;3.45;100.00;97004.66;10604796;27;20232;-67
2023/06/03 00:48:17;;;;;;;3.70;1.70;;;;;;;3.28;100.00;97010.13;10622986;27;20309;-67
2023/06/03 00:53:18;;;;;;;10.87;1.83;;;;;;;3.17;100.00;97016.88;10587305;27;20205;-68
2023/06/03 00:58:18;;;;;;;3.37;1.87;;;;;;;3.05;100.00;97012.53;10622588;27;20624;-68
2023/06/03 01:03:19;;;;;;;8.03;1.63;;;;;;;2.95;100.00;97020.06;10622078;27;20216;-68
2023/06/03 01:08:26;;;;;;;3.00;1.40;;;;;;;2.84;100.00;97004.44;10603789;27;20259;-68
2023/06/03 01:13:33;;;;;;;4.77;2.00;;;;;;;2.81;100.00;97009.81;10577117;22;20812;-62
2023/06/03 01:18:35;;;;;;;3.63;1.60;;;;;;;2.75;100.00;97005.84;10559114;28;20374;-62
2023/06/03 01:23:36;;;;;;;1.83;1.47;;;;;;;2.67;100.00;97008.13;10599754;27;20210;-62
2023/06/03 01:28:36;;;;;;;2.23;1.50;;;;;;;2.68;100.00;97008.03;10602867;27;20189;-62
2023/06/03 01:33:38;;;;;;;1.90;1.40;;;;;;;2.59;100.00;97007.78;10621340;27;20209;-63
2023/06/03 01:38:40;;;;;;;2.60;1.33;;;;;;;2.50;100.00;97004.03;10620737;27;20269;-62
2023/06/03 01:43:40;;;;;;;2.73;1.80;;;;;;;2.42;100.00;97004.53;10585599;27;20253;-61
2023/06/03 01:48:42;;;;;;;1.87;1.50;;;;;;;2.41;100.00;97002.88;10602384;27;20189;-63
2023/06/03 01:53:43;;;;;;;3.53;1.80;;;;;;;2.35;100.00;97012.78;10620862;27;20208;-62
2023/06/03 01:58:44;;;;;;;2.47;1.63;;;;;;;2.40;100.00;97005.56;10602129;27;20240;-62
2023/06/03 02:03:45;;;;;;;3.33;1.70;;;;;;;2.36;100.00;97001.50;10601210;27;20219;-62
2023/06/03 02:08:45;;;;;;;1.60;1.50;;;;;;;2.25;100.00;97007.34;10601547;27;20196;-62
2023/06/03 02:13:46;;;;;;;7.53;2.17;;;;;;;2.24;100.00;97009.13;10619014;28;20249;-62
2023/06/03 02:18:46;;;;;;;2.20;1.27;;;;;;;2.19;100.00;97012.91;10619957;28;20742;-61
2023/06/03 02:23:47;;;;;;;2.30;1.40;;;;;;;2.08;100.00;97019.59;10601425;28;20215;-62
2023/06/03 02:28:47;;;;;;;2.07;1.50;;;;;;;2.03;100.00;97024.22;10619865;28;20230;-61
2023/06/03 02:33:48;;;;;;;2.70;1.60;;;;;;;1.95;100.00;97016.94;10605430;27;20562;-61
2023/06/03 02:38:48;;;;;;;3.37;1.63;;;;;;;1.87;100.00;97018.34;10609539;27;20197;-61
2023/06/03 02:43:48;;;;;;;2.00;1.40;;;;;;;1.85;100.00;97023.59;10609582;27;20292;-60
2023/06/03 02:48:49;;;;;;;1.47;1.37;;;;;;;1.78;100.00;97020.56;10588193;27;20789;-62
2023/06/03 02:53:50;;;;;;;1.93;1.50;;;;;;;1.80;100.00;97024.81;10566686;28;20705;-61
2023/06/03 02:58:51;;;;;;;5.53;1.67;;;;;;;1.91;100.00;97020.63;10566604;28;20182;-60
2023/06/03 03:03:51;;;;;;;4.43;1.93;;;;;;;1.87;100.00;97020.91;10603303;27;20214;-60
2023/06/03 03:08:52;;;;;;;2.60;1.47;;;;;;;1.87;100.00;97026.09;10627269;27;20313;-60
2023/06/03 03:13:58;;;;;;;1.90;1.13;;;;;;;1.88;100.00;97030.34;10608258;27;20240;-61
2023/06/03 03:19:00;;;;;;;2.90;1.80;;;;;;;1.90;100.00;97031.06;10608796;27;20204;-60
2023/06/03 03:24:00;;;;;;;3.30;1.70;;;;;;;1.92;100.00;97035.22;10608193;27;20234;-60
2023/06/03 03:29:02;;;;;;;2.97;1.67;;;;;;;1.90;100.00;97038.81;10626516;27;20285;-62
2023/06/03 03:34:04;;;;;;;3.50;1.60;;;;;;;1.91;100.00;97036.13;10626608;27;20622;-60
2023/06/03 03:39:06;;;;;;;2.97;2.00;;;;;;;1.78;100.00;97040.41;10590663;27;20188;-61
2023/06/03 03:44:12;;;;;;;1.97;1.57;;;;;;;1.91;100.00;97038.72;10606857;27;20241;-61
2023/06/03 03:49:15;;;;;;;4.33;1.80;;;;;;;1.86;100.00;97043.34;10607614;27;20718;-62
2023/06/03 03:54:21;;;;;;;1.83;1.60;;;;;;;1.93;100.00;97041.19;10589991;27;20205;-60
2023/06/03 03:59:26;;;;;;;4.43;2.03;;;;;;;1.94;100.00;97040.28;10625327;27;20314;-61
2023/06/03 04:04:38;;;;;;;5.27;1.90;;;;;;;2.05;100.00;97043.06;10606254;27;20582;-61
2023/06/03 04:09:39;;;;;;;3.17;1.70;;;;;;;2.04;100.00;97032.81;10606342;27;20247;-62
2023/06/03 04:14:49;;;;;;;3.10;2.17;;;;;;;2.23;100.00;97038.47;10624019;27;20277;-63
2023/06/03 04:19:50;;;;;;;4.23;2.43;;;;;;;2.48;100.00;97030.00;10589120;27;20188;-62
2023/06/03 04:25:02;;;;;;;3.30;2.17;;;;;;;2.71;100.00;97032.88;10605903;27;20228;-63
2023/06/03 04:30:10;;;;;;;3.63;2.00;;;;;;;2.99;100.00;97031.06;10589499;27;20223;-63
2023/06/03 04:35:11;;;;;;;5.60;2.03;;;;;;;3.27;100.00;97026.63;10604885;27;20205;-63
2023/06/03 04:40:15;;;;;;;2.40;1.90;;;;;;;3.63;100.00;97033.66;10605038;27;20268;-63
2023/06/03 04:45:16;;;;;;;6.37;2.10;;;;;;;3.90;100.00;97037.84;10604509;27;20205;-63
2023/06/03 04:50:19;;;;;;;4.37;2.07;;;;;;;4.16;100.00;97042.97;10604257;27;20213;-63
2023/06/03 04:55:20;;;;;;;2.27;1.93;;;;;;;4.50;100.00;97035.38;10603253;27;20209;-62
2023/06/03 05:00:21;;;;;;;3.30;2.20;;;;;;;4.92;100.00;97028.84;10622100;27;20205;-63
2023/06/03 05:05:28;;;;;;;5.43;2.20;;;;;;;5.20;100.00;97024.19;10603886;27;20575;-63
2023/06/03 05:10:29;;;;;;;3.77;2.00;;;;;;;5.40;100.00;97021.84;10603427;27;20213;-63
2023/06/03 05:15:33;;;;;;;6.73;2.33;;;;;;;5.69;100.00;97023.03;10603032;27;20256;-61
2023/06/03 05:20:33;;;;;;;4.40;2.13;;;;;;;6.23;100.00;97024.09;10603447;27;20276;-62
2023/06/03 05:25:34;;;;;;;2.97;1.90;;;;;;;6.63;100.00;97025.28;10620246;27;20284;-61
2023/06/03 05:30:34;;;;;;;6.97;2.47;;;;;;;7.04;100.00;97022.84;10597061;27;20268;-61
2023/06/03 05:35:35;;;;;;;4.30;1.90;;;;;;;7.59;100.00;97027.81;10602222;27;20209;-58
2023/06/03 05:40:35;;;;;;;2.90;1.90;;;;;;;8.18;99.22;97016.66;10620951;27;20177;-62
2023/06/03 05:45:36;;;;;;;3.60;2.30;;;;;;;8.72;95.45;96995.44;10621023;27;20282;-60
2023/06/03 05:50:38;;;;;;;2.90;1.80;;;;;;;9.48;91.38;96984.16;10601955;27;20252;-62
2023/06/03 05:55:39;;;;;;;2.00;1.73;;;;;;;10.34;72.98;96828.59;10576424;27;20237;-60
2023/06/03 06:00:40;;;;;;;4.27;1.57;;;;;;;11.22;63.54;96776.00;10576563;28;20197;-58
2023/06/03 06:05:40;;;;;;;3.63;1.63;;;;;;;11.90;59.89;96752.34;10559620;28;20202;-63
2023/06/03 06:10:41;;;;;;;3.92;1.20;;;;;;;12.43;56.97;96740.50;10558961;28;20218;-64
2023/06/03 06:15:56;;;;;;;4.75;1.45;;;;;;;13.12;52.79;96689.16;10577224;28;20707;-63
2023/06/03 06:20:57;;;;;;;1.73;1.13;;;;;;;13.88;52.86;96726.19;10559487;28;20639;-62
2023/06/03 06:25:58;;;;;;;2.42;1.17;;;;;;;14.20;46.19;96600.44;10576141;28;20209;-61
2023/06/03 06:31:02;;;;;;;5.95;1.38;;;;;;;14.92;46.70;96670.94;10559186;28;20600;-63
2023/06/03 06:36:29;;;;;;;4.18;1.02;;;;;;;16.08;40.99;96574.91;10559360;28;20204;-63
2023/06/03 06:41:33;;;;;;;8.50;1.23;;;;;;;17.38;39.68;96605.88;10558906;28;20204;-64
2023/06/03 06:46:36;;;;;;;2.95;1.10;;;;;;;17.22;40.77;96646.78;10577508;28;20213;-62
2023/06/03 06:51:37;;;;;;;5.57;1.33;;;;;;;17.53;39.05;96613.63;10577450;28;20226;-62
2023/06/03 06:56:40;;;;;;;4.00;1.17;;;;;;;17.05;38.11;96575.69;10559133;28;20186;-64
2023/06/03 07:01:45;;;;;;;2.92;0.93;;;;;;;19.41;34.33;96566.94;10577308;28;20277;-64
2023/06/03 07:06:47;;;;;;;7.32;1.10;;;;;;;18.50;35.44;96590.88;10590914;28;20287;-63
2023/06/03 07:11:47;;;;;;;6.45;1.30;;;;;;;18.02;33.36;96513.53;10632233;22;20285;-67
2023/06/03 07:16:50;;;;;;;3.20;1.17;;;;;;;17.58;34.08;96537.00;10508892;28;20621;-67
2023/06/03 07:21:52;;;;;;;4.82;1.30;;;;;;;16.91;37.50;96603.16;10517188;28;20713;-68
2023/06/03 07:26:54;;;;;;;6.20;1.10;;;;;;;16.53;36.72;96583.22;10480233;28;20199;-67
2023/06/03 07:31:55;;;;;;;2.90;1.23;;;;;;;16.65;36.30;96586.13;10497401;28;20238;-68
2023/06/03 07:36:59;;;;;;;2.88;0.93;;;;;;;17.36;34.32;96557.59;10503392;28;20199;-68
2023/06/03 07:42:01;;;;;;;3.35;1.00;;;;;;;16.74;36.65;96608.75;10497113;28;20214;-68
2023/06/03 07:47:15;;;;;;;4.88;0.98;;;;;;;16.61;36.01;96590.19;10513343;28;20286;-67
2023/06/03 07:52:18;;;;;;;3.45;1.40;;;;;;;15.86;36.29;96571.50;10497090;28;20306;-67
2023/06/03 07:57:18;;;;;;;3.40;1.20;;;;;;;16.76;36.00;96603.28;10509363;28;20215;-68
2023/06/03 08:02:19;;;;;;;3.33;1.10;;;;;;;17.45;36.82;96654.38;10518604;28;21108;-68
2023/06/03 08:07:20;;;;;;;1.75;0.90;;;;;;;17.68;36.14;96639.94;10500248;28;20228;-68
2023/06/03 08:12:28;;;;;;;6.70;0.77;;;;;;;16.85;35.28;96594.13;10436886;28;20595;-68
2023/06/03 08:17:40;;;;;;;1.80;1.10;;;;;;;16.62;36.93;96636.78;10477373;28;20608;-67
2023/06/03 08:22:43;;;;;;;3.40;1.10;;;;;;;17.79;33.61;96595.09;10497149;28;20203;-67
2023/06/03 08:27:43;;;;;;;3.90;1.10;;;;;;;15.93;36.16;96579.47;10500293;28;20254;-68
2023/06/03 08:32:44;;;;;;;4.45;1.17;;;;;;;15.85;37.53;96633.28;10496839;28;20301;-68
2023/06/03 08:37:45;;;;;;;4.82;1.00;;;;;;;16.47;34.98;96572.66;10503932;28;20651;-68
2023/06/03 08:42:47;;;;;;;3.75;1.23;;;;;;;18.03;34.70;96631.81;10487069;28;20245;-68
2023/06/03 08:48:10;;;;;;;2.55;1.00;;;;;;;18.16;36.99;96704.19;10493735;28;20269;-68
2023/06/03 08:53:11;;;;;;;3.85;1.10;;;;;;;19.02;33.92;96653.78;10459997;28;20334;-68
2023/06/03 08:58:31;;;;;;;5.75;1.17;;;;;;;18.60;35.46;96671.88;10477339;28;20928;-68
2023/06/03 09:03:32;;;;;;;3.80;1.10;;;;;;;18.64;32.45;96575.72;10493818;28;20207;-68
2023/06/03 09:08:36;;;;;;;17.00;1.60;;;;;;;17.65;34.45;96601.41;10494661;28;20222;-68
2023/06/03 09:13:36;;;;;;;3.90;0.98;;;;;;;17.78;35.08;96638.50;10481222;28;20258;-68
2023/06/03 09:18:38;;;;;;;1.13;1.00;;;;;;;18.50;34.29;96628.03;10493382;28;20213;-68
2023/06/03 09:23:41;;;;;;;4.03;1.13;;;;;;;19.54;34.70;96681.09;10493048;28;20769;-68
2023/06/03 09:28:41;;;;;;;1.55;1.00;;;;;;;20.21;32.88;96638.03;10492865;28;20211;-67
2023/06/03 09:33:42;;;;;;;1.80;0.90;;;;;;;20.65;31.18;96600.75;10492800;28;20207;-67
2023/06/03 09:38:54;;;;;;;4.10;1.10;;;;;;;21.05;30.54;96586.13;10492755;28;20190;-66
2023/06/03 09:44:02;;;;;;;1.05;0.95;;;;;;;21.47;32.01;96647.41;10489502;28;20215;-68
2023/06/03 09:49:19;;;;;;;2.97;1.50;;;;;;;21.37;30.37;96581.34;10492409;28;20709;-66
2023/06/03 09:54:23;;;;;;;5.05;1.00;;;;;;;21.98;31.01;96640.69;10486338;28;20763;-67
2023/06/03 09:59:29;;;;;;;3.40;1.13;;;;;;;20.91;31.82;96596.16;10474758;28;20196;-67
2023/06/03 10:04:46;;;;;;;7.57;1.23;;;;;;;21.51;33.59;96693.94;10491424;28;20211;-67
2023/06/03 10:09:47;;;;;;;4.95;1.23;;;;;;;21.28;31.00;96599.50;10493145;28;20279;-67
2023/06/03 10:14:49;;;;;;;3.15;1.10;;;;;;;20.93;33.10;96642.00;10492954;28;20712;-66
2023/06/03 10:19:49;;;;;;;3.67;1.20;;;;;;;21.30;31.90;96632.09;10493254;28;20687;-67
2023/06/03 10:24:53;;;;;;;1.85;1.10;;;;;;;21.68;31.35;96636.25;10492884;28;20285;-68
2023/06/03 10:29:53;;;;;;;9.23;1.27;;;;;;;22.56;31.50;96664.97;10474718;28;20314;-68
2023/06/03 10:34:55;;;;;;;3.60;1.50;;;;;;;22.20;31.51;96651.59;10491859;28;20211;-68
2023/06/03 10:39:59;;;;;;;4.47;1.50;;;;;;;22.94;28.97;96586.97;10492195;28;20187;-69
2023/06/03 10:44:59;;;;;;;4.30;1.08;;;;;;;23.43;29.55;96607.06;10490636;28;20211;-68
2023/06/03 10:50:44;;;;;;;3.58;1.10;;;;;;;23.51;28.22;96571.94;10481874;28;20587;-68
2023/06/03 10:55:54;;;;;;;6.68;1.30;;;;;;;22.69;29.74;96603.28;10471827;28;20225;-69
2023/06/03 11:01:04;;;;;;;3.15;0.90;;;;;;;23.12;27.35;96540.56;10482084;28;20192;-68
2023/06/03 11:06:21;;;;;;;1.30;0.80;;;;;;;24.36;27.78;96603.97;10500010;28;20223;-68
2023/06/03 11:11:41;;;;;;;3.38;1.30;;;;;;;24.88;26.83;96574.09;10499789;28;20214;-68
2023/06/03 11:16:57;;;;;;;1.50;0.90;;;;;;;24.09;27.43;96558.38;10481469;28;20303;-68
2023/06/03 11:21:58;;;;;;;3.38;1.05;;;;;;;22.29;31.10;96609.38;10499286;28;20215;-67
2023/06/03 11:26:59;;;;;;;3.85;0.88;;;;;;;23.20;28.58;96552.72;10498999;28;20191;-68
2023/06/03 11:32:21;;;;;;;1.27;1.08;;;;;;;23.43;30.09;96618.59;10498429;28;20222;-69
2023/06/03 11:37:44;;;;;;;4.72;1.23;;;;;;;24.47;27.49;96580.81;10498506;28;20209;-68
2023/06/03 11:42:47;;;;;;;3.65;1.50;;;;;;;23.20;28.81;96567.94;10498546;28;20302;-68
2023/06/03 11:47:48;;;;;;;2.05;1.00;;;;;;;23.16;28.90;96554.25;10498669;28;20226;-68
2023/06/03 11:52:49;;;;;;;4.03;0.93;;;;;;;24.03;29.11;96597.66;10498667;28;20219;-68
2023/06/03 11:57:50;;;;;;;2.35;0.80;;;;;;;22.60;28.76;96525.44;10498452;28;20183;-68
2023/06/03 12:02:50;;;;;;;2.97;1.02;;;;;;;22.09;27.45;96442.47;10497950;28;20724;-68
2023/06/03 12:07:59;;;;;;;4.53;1.10;;;;;;;23.13;29.08;96563.53;10497845;28;20260;-68
2023/06/03 12:13:01;;;;;;;2.25;1.00;;;;;;;23.05;29.08;96544.41;10497634;28;20288;-68
2023/06/03 12:18:04;;;;;;;1.63;1.00;;;;;;;23.59;28.92;96563.50;10496076;28;20194;-69
2023/06/03 12:23:06;;;;;;;3.67;0.82;;;;;;;24.26;30.24;96625.25;10495905;28;20219;-68
2023/06/03 12:28:27;;;;;;;3.67;1.10;;;;;;;25.13;26.95;96562.03;10477616;28;20715;-68
2023/06/03 12:33:41;;;;;;;4.50;1.35;;;;;;;25.65;26.14;96541.81;10495257;28;20294;-68
2023/06/03 12:38:58;;;;;;;0.90;0.70;;;;;;;23.92;27.26;96510.22;10495257;28;20187;-68
2023/06/03 12:44:00;;;;;;;3.38;0.95;;;;;;;23.63;28.02;96535.22;10495008;28;20240;-68
2023/06/03 12:49:13;;;;;;;1.65;0.80;;;;;;;23.47;29.61;96560.91;10495009;28;20616;-69
2023/06/03 12:54:15;;;;;;;3.83;1.52;;;;;;;23.89;28.10;96537.47;10495103;28;20218;-68
2023/06/03 12:59:16;;;;;;;1.23;1.13;;;;;;;25.11;27.08;96553.44;10494607;28;20184;-68
2023/06/03 13:04:16;;;;;;;10.77;8.85;;;;;;;24.21;27.91;96534.97;10494358;28;20211;-68
2023/06/03 13:09:17;;;;;;;2.22;1.23;;;;;;;23.35;26.92;96465.81;10494187;28;20227;-68
2023/06/03 13:14:17;;;;;;;1.20;0.80;;;;;;;23.31;30.55;96591.13;10512883;22;979829;-65
2023/06/03 13:19:18;;;;;;;3.35;0.90;;;;;;;24.21;27.69;96533.13;10577105;28;20223;-66
2023/06/03 13:24:18;;;;;;;0.95;0.90;;;;;;;25.21;27.66;96556.22;10579519;28;20209;-66
2023/06/03 13:29:18;;;;;;;2.05;1.10;;;;;;;25.81;26.27;96537.41;10579110;28;20768;-67
2023/06/03 13:34:19;;;;;;;2.53;0.97;;;;;;;25.91;26.43;96548.22;10578999;28;20671;-67
2023/06/03 13:39:22;;;;;;;1.87;0.90;;;;;;;26.90;23.19;96476.91;10578927;28;20861;-67
2023/06/03 13:44:22;;;;;;;2.17;0.90;;;;;;;28.16;23.08;96522.03;10578694;28;20989;-66
2023/06/03 13:49:23;;;;;;;0.80;0.80;;;;;;;28.58;22.36;96501.13;10578876;28;20206;-67
2023/06/03 13:54:23;;;;;;;1.00;0.80;;;;;;;28.22;23.86;96507.47;10578593;28;20228;-68
2023/06/03 13:59:24;;;;;;;3.47;0.90;;;;;;;28.64;22.37;96475.78;10578167;28;20467;-67
2023/06/03 14:04:24;;;;;;;1.50;1.10;;;;;;;30.30;21.02;96478.66;10578334;28;20213;-65
2023/06/03 14:09:25;;;;;;;4.75;0.95;;;;;;;27.42;23.73;96454.34;10577978;28;20202;-65
2023/06/03 14:14:25;;;;;;;1.70;1.00;;;;;;;29.29;20.97;96443.22;10578074;28;20231;-66
2023/06/03 14:19:25;;;;;;;5.18;1.02;;;;;;;29.71;20.13;96414.75;10577641;28;20518;-65
2023/06/03 14:24:26;;;;;;;3.87;1.00;;;;;;;28.37;21.95;96398.03;10577656;28;20570;-67
2023/06/03 14:29:26;;;;;;;5.33;1.00;;;;;;;29.70;20.62;96433.94;10581399;28;20923;-69
2023/06/03 14:34:26;;;;;;;1.57;1.00;;;;;;;31.12;19.47;96435.06;10586153;28;20826;-65
2023/06/03 14:39:27;;;;;;;3.57;0.90;;;;;;;29.81;20.93;96434.66;10586187;28;21052;-66
2023/06/03 14:44:27;;;;;;;1.73;0.90;;;;;;;29.68;21.32;96447.72;10586432;28;20992;-69
2023/06/03 14:49:29;;;;;;;0.83;0.83;;;;;;;30.41;20.46;96439.59;10586203;28;20940;-68
2023/06/03 14:54:29;;;;;;;3.28;1.00;;;;;;;30.66;19.92;96426.81;10585954;28;20463;-69
2023/06/03 14:59:30;;;;;;;2.40;1.30;;;;;;;28.82;21.83;96410.41;10585383;28;20711;-66
2023/06/03 15:04:31;;;;;;;5.78;1.10;;;;;;;30.27;19.60;96403.56;10585295;28;21086;-66
2023/06/03 15:09:32;;;;;;;1.10;1.00;;;;;;;28.43;21.81;96381.53;10584998;28;20186;-68
2023/06/03 15:14:33;;;;;;;5.70;1.08;;;;;;;26.67;22.67;96344.66;10584673;28;20471;-66
2023/06/03 15:19:33;;;;;;;5.80;1.05;;;;;;;26.78;23.32;96383.88;10584254;28;20218;-65
2023/06/03 15:24:33;;;;;;;7.60;1.70;;;;;;;27.44;23.33;96419.88;10584265;28;20688;-66
2023/06/03 15:29:34;;;;;;;1.80;1.07;;;;;;;26.85;23.21;96378.25;10582778;28;21006;-66
2023/06/03 15:34:35;;;;;;;2.80;1.00;;;;;;;26.44;24.55;96407.75;10582788;28;20964;-68
2023/06/03 15:39:35;;;;;;;1.23;1.00;;;;;;;25.49;23.97;96344.31;10582776;28;20221;-68
2023/06/03 15:44:35;;;;;;;2.53;1.40;;;;;;;24.71;25.65;96375.94;10582665;28;20466;-69
2023/06/03 15:49:36;;;;;;;2.13;1.73;;;;;;;23.13;26.96;96365.00;10583383;28;20599;-68
2023/06/03 15:54:36;;;;;;;2.43;1.40;;;;;;;22.69;27.97;96381.63;10582927;28;20804;-68
2023/06/03 15:59:37;;;;;;;2.45;1.25;;;;;;;21.69;28.71;96378.47;10582445;28;20953;-67
2023/06/03 16:04:37;;;;;;;2.58;1.35;;;;;;;21.63;30.12;96428.19;10581110;28;20213;-68
2023/06/03 16:09:37;;;;;;;3.58;1.10;;;;;;;20.25;30.68;96375.88;10581828;28;20186;-68
2023/06/03 16:14:38;;;;;;;4.47;1.60;;;;;;;20.18;30.84;96395.63;10582325;28;20251;-68
2023/06/03 16:19:41;;;;;;;2.30;1.20;;;;;;;20.08;30.98;96396.19;10582040;28;20217;-69
2023/06/03 16:24:41;;;;;;;5.47;1.70;;;;;;;19.52;31.21;96395.38;10581971;28;20703;-68
2023/06/03 16:29:42;;;;;;;2.58;1.10;;;;;;;19.61;32.06;96421.41;10581513;28;20261;-68
2023/06/03 16:34:43;;;;;;;3.70;1.50;;;;;;;19.82;31.98;96435.34;10563283;28;20205;-68
2023/06/03 16:39:43;;;;;;;6.43;2.08;;;;;;;19.72;32.61;96445.63;10581136;28;20221;-69
2023/06/03 16:44:43;;;;;;;2.38;1.23;;;;;;;19.22;32.55;96441.25;10580937;28;20296;-68
2023/06/03 16:49:44;;;;;;;4.70;1.30;;;;;;;19.33;34.44;96500.81;10580978;28;20215;-68
2023/06/03 16:54:44;;;;;;;1.42;1.30;;;;;;;18.69;34.04;96469.75;10580156;28;20209;-67
2023/06/03 16:59:45;;;;;;;7.05;3.00;;;;;;;18.53;34.55;96471.09;10580471;28;20558;-69
2023/06/03 17:04:45;;;;;;;22.13;10.57;;;;;;;18.29;35.48;96493.84;10580030;28;20213;-69
2023/06/03 17:09:45;;;;;;;67.53;48.90;;;;;;;18.12;35.61;96498.00;10579706;28;20214;-69
2023/06/03 17:14:46;;;;;;;1.48;1.13;;;;;;;17.65;36.28;96493.59;10579237;28;20246;-67
2023/06/03 17:19:46;;;;;;;3.35;1.40;;;;;;;17.50;36.73;96521.34;10577601;28;20221;-67
2023/06/03 17:24:46;;;;;;;3.78;1.20;;;;;;;17.34;36.90;96512.00;10578142;28;20252;-67
2023/06/03 17:29:47;;;;;;;3.50;1.20;;;;;;;17.25;36.79;96500.78;10577141;28;20189;-68
2023/06/03 17:34:47;;;;;;;6.65;1.40;;;;;;;17.05;37.50;96522.75;10579609;28;20221;-68
2023/06/03 17:39:48;;;;;;;2.10;1.40;;;;;;;16.94;38.20;96534.75;10578492;28;20217;-67
2023/06/03 17:44:48;;;;;;;1.30;1.20;;;;;;;16.74;38.48;96539.16;10578408;28;20328;-68
2023/06/03 17:49:50;;;;;;;4.35;1.80;;;;;;;16.66;38.59;96547.28;10578410;28;20190;-68
2023/06/03 17:54:50;;;;;;;2.30;1.95;;;;;;;16.34;39.75;96563.63;10577859;28;20232;-66
2023/06/03 17:59:51;;;;;;;2.38;1.30;;;;;;;16.31;40.58;96590.47;10578073;28;20283;-66
2023/06/03 18:04:51;;;;;;;3.30;1.40;;;;;;;16.33;39.95;96572.56;10576978;28;20214;-65
2023/06/03 18:09:51;;;;;;;2.00;1.25;;;;;;;16.04;40.79;96592.94;10578042;28;20232;-67
2023/06/03 18:14:52;;;;;;;2.00;1.15;;;;;;;16.07;41.38;96602.31;10577303;28;20230;-65
2023/06/03 18:19:54;;;;;;;3.72;1.60;;;;;;;15.80;41.66;96603.97;10576942;28;20221;-64
2023/06/03 18:24:55;;;;;;;2.30;1.15;;;;;;;15.56;43.09;96634.22;10576392;28;20641;-65
2023/06/03 18:29:55;;;;;;;4.10;1.60;;;;;;;15.29;43.76;96644.53;10576423;28;20182;-64
2023/06/03 18:34:55;;;;;;;4.57;1.70;;;;;;;15.15;44.17;96659.41;10576378;28;20225;-64
2023/06/03 18:39:57;;;;;;;1.92;1.30;;;;;;;14.98;44.79;96677.28;10575939;28;20283;-65
2023/06/03 18:44:58;;;;;;;2.72;1.45;;;;;;;14.81;45.25;96679.31;10576712;28;20208;-64
2023/06/03 18:49:58;;;;;;;4.20;1.60;;;;;;;14.41;46.69;96700.66;10576405;28;20178;-65
2023/06/03 18:54:58;;;;;;;3.72;1.80;;;;;;;13.77;49.87;96756.38;10576565;28;20244;-64
2023/06/03 19:00:00;;;;;;;2.72;1.58;;;;;;;13.41;51.01;96777.16;10575877;28;20205;-64
2023/06/03 19:05:01;;;;;;;3.50;1.60;;;;;;;13.05;52.05;96786.34;10574782;28;20711;-66
2023/06/03 19:10:01;;;;;;;5.93;1.67;;;;;;;12.36;55.08;96828.84;10580238;28;20190;-65
2023/06/03 19:15:02;;;;;;;2.47;1.75;;;;;;;11.56;56.66;96845.94;10601095;22;20238;-67
2023/06/03 19:20:04;;;;;;;1.83;1.50;;;;;;;11.26;58.69;96860.41;10581085;28;20210;-68
2023/06/03 19:25:05;;;;;;;4.82;2.75;;;;;;;11.22;59.80;96865.16;10583572;28;20206;-67
2023/06/03 19:30:07;;;;;;;31.50;18.42;;;;;;;10.76;61.43;96875.03;10583535;28;20189;-67
2023/06/03 19:35:07;;;;;;;13.10;7.32;;;;;;;10.65;62.10;96867.44;10583195;28;20220;-67
2023/06/03 19:40:08;;;;;;;6.18;2.50;;;;;;;10.18;63.20;96868.50;10582877;28;20220;-67
2023/06/03 19:45:08;;;;;;;2.50;2.13;;;;;;;9.98;64.37;96881.75;10583036;28;20213;-67
2023/06/03 19:50:09;;;;;;;4.83;2.47;;;;;;;9.82;65.19;96882.38;10582643;28;20185;-67
2023/06/03 19:55:09;;;;;;;5.60;2.10;;;;;;;9.62;66.12;96884.31;10582593;28;20684;-67
2023/06/03 20:00:11;;;;;;;5.63;2.77;;;;;;;9.44;66.46;96880.81;10582204;28;20228;-67
2023/06/03 20:05:12;;;;;;;7.40;2.10;;;;;;;9.35;67.11;96879.88;10581982;28;20706;-67
2023/06/03 20:10:13;;;;;;;6.27;2.60;;;;;;;9.28;67.46;96873.63;10582011;28;20192;-67
2023/06/03 20:15:15;;;;;;;2.93;1.60;;;;;;;9.11;67.65;96880.38;10581423;28;20257;-67
2023/06/03 20:20:19;;;;;;;7.03;2.23;;;;;;;9.00;68.43;96891.03;10581554;28;20228;-67
2023/06/03 20:25:20;;;;;;;2.70;1.50;;;;;;;8.95;68.29;96895.88;10580840;28;20202;-67
2023/06/03 20:30:20;;;;;;;5.13;1.80;;;;;;;8.91;69.09;96896.16;10581094;28;20280;-66
2023/06/03 20:35:21;;;;;;;2.33;1.70;;;;;;;8.72;69.99;96901.41;10560490;28;20210;-67
2023/06/03 20:40:23;;;;;;;5.63;1.90;;;;;;;8.60;70.33;96902.53;10538439;28;20232;-67
2023/06/03 20:45:24;;;;;;;4.73;2.00;;;;;;;8.41;71.16;96904.16;10538330;28;20211;-67
2023/06/03 20:50:25;;;;;;;2.23;1.60;;;;;;;8.37;71.60;96916.66;10538197;28;20190;-67
2023/06/03 20:55:26;;;;;;;2.43;1.63;;;;;;;8.38;71.22;96907.84;10538020;28;20210;-67
2023/06/03 21:00:26;;;;;;;5.10;1.80;;;;;;;8.31;71.34;96917.19;10537817;28;20787;-67
2023/06/03 21:05:26;;;;;;;5.50;2.10;;;;;;;8.03;72.94;96929.28;10537080;28;20704;-67
2023/06/03 21:10:27;;;;;;;3.87;1.40;;;;;;;7.93;73.78;96933.63;10537559;28;20201;-66
2023/06/03 21:15:27;;;;;;;4.10;1.73;;;;;;;7.90;73.68;96926.09;10537554;28;20234;-66
2023/06/03 21:20:27;;;;;;;2.83;1.80;;;;;;;7.80;74.46;96926.06;10537663;28;20222;-66
2023/06/03 21:25:28;;;;;;;4.77;1.73;;;;;;;7.66;74.83;96932.50;10537284;28;20214;-66
2023/06/03 21:30:28;;;;;;;2.47;1.83;;;;;;;7.55;75.33;96935.19;10537438;28;20191;-66
2023/06/03 21:35:29;;;;;;;4.20;1.87;;;;;;;7.45;75.22;96930.75;10536908;28;20224;-66
2023/06/03 21:40:29;;;;;;;9.47;1.60;;;;;;;7.31;76.19;96942.34;10535933;28;20271;-66
2023/06/03 21:45:30;;;;;;;2.23;1.73;;;;;;;7.22;77.38;96947.53;10536742;28;20877;-67
2023/06/03 21:50:30;;;;;;;2.33;1.87;;;;;;;7.03;78.52;96956.91;10536349;28;20719;-67
2023/06/03 21:55:31;;;;;;;3.93;1.83;;;;;;;6.94;78.64;96947.25;10536653;28;20711;-66
2023/06/03 22:00:32;;;;;;;2.40;1.50;;;;;;;6.85;79.18;96943.63;10535999;28;20587;-67
2023/06/03 22:05:34;;;;;;;2.47;1.60;;;;;;;6.65;81.06;96952.28;10536119;28;20206;-67
2023/06/03 22:10:34;;;;;;;3.90;1.77;;;;;;;6.48;81.63;96948.41;10536107;28;20190;-67
2023/06/03 22:15:35;;;;;;;1.77;1.50;;;;;;;6.47;81.63;96946.78;10535291;28;20274;-67
2023/06/03 22:20:35;;;;;;;3.97;1.70;;;;;;;6.39;81.72;96943.03;10534791;28;20315;-67
2023/06/03 22:25:36;;;;;;;2.40;1.77;;;;;;;6.37;81.73;96934.53;10535528;28;20251;-67
2023/06/03 22:30:36;;;;;;;2.97;2.13;;;;;;;6.29;81.92;96923.91;10535802;28;20198;-66
2023/06/03 22:35:39;;;;;;;4.13;1.80;;;;;;;6.29;81.96;96925.69;10535477;28;20266;-66
2023/06/03 22:40:47;;;;;;;4.03;1.67;;;;;;;6.21;81.88;96931.50;10535435;28;20238;-67
2023/06/03 22:45:48;;;;;;;5.00;1.80;;;;;;;6.15;83.02;96929.41;10535404;28;20207;-67
2023/06/03 22:50:48;;;;;;;2.60;1.50;;;;;;;5.96;82.99;96930.03;10539209;28;20183;-67
2023/06/03 22:55:49;;;;;;;2.30;1.50;;;;;;;5.97;83.34;96924.72;10543412;28;20256;-67
2023/06/03 23:00:49;;;;;;;4.97;1.67;;;;;;;5.77;84.40;96930.63;10543070;28;20233;-67
2023/06/03 23:05:49;;;;;;;2.10;1.53;;;;;;;5.69;84.19;96929.47;10542930;28;20214;-66
2023/06/03 23:10:50;;;;;;;4.80;1.73;;;;;;;5.62;84.44;96930.91;10542769;28;20222;-66
2023/06/03 23:15:50;;;;;;;1.67;1.57;;;;;;;5.63;84.35;96924.75;10542226;28;20234;-67
2023/06/03 23:20:52;;;;;;;1.77;1.40;;;;;;;5.62;84.39;96923.13;10542367;28;20272;-66
2023/06/03 23:25:52;;;;;;;1.67;1.37;;;;;;;5.61;84.00;96918.03;10542020;28;20306;-66
2023/06/03 23:30:52;;;;;;;2.37;1.77;;;;;;;5.51;84.80;96923.09;10542188;28;20183;-66